sensor_id;sensor_type;location;lat;lon;timestamp;pressure;altitude;pressure_sealevel;temperature;humidity
68656;BME280;55638;51.122;13.606;2022-12-18T10:14:12;102017.78;;;-12.77;91.42
68656;BME280;55638;51.122;13.606;2022-12-18T10:16:09;102008.44;;;-12.22;90.14
68656;BME280;55638;51.122;13.606;2022-12-18T10:17:58;101999.69;;;-11.70;88.85
68656;BME280;55638;51.122;13.606;2022-12-18T10:19:54;101985.75;;;-11.15;87.02
68656;BME280;55638;51.122;13.606;2022-12-18T10:21:50;101991.47;;;-10.68;85.75
68656;BME280;55638;51.122;13.606;2022-12-18T10:26:47;101974.88;;;-9.66;81.80
68656;BME280;55638;51.122;13.606;2022-12-18T10:28:20;101971.03;;;-9.42;80.33
68656;BME280;55638;51.122;13.606;2022-12-18T10:29:52;101960.19;;;-9.21;78.62
68656;BME280;55638;51.122;13.606;2022-12-18T10:31:25;101975.44;;;-9.00;78.00
68656;BME280;55638;51.122;13.606;2022-12-18T10:33:01;101967.91;;;-8.85;76.79
68656;BME280;55638;51.122;13.606;2022-12-18T10:34:33;101962.22;;;-8.63;76.80
68656;BME280;55638;51.122;13.606;2022-12-18T10:36:05;101952.03;;;-8.47;76.01
68656;BME280;55638;51.122;13.606;2022-12-18T10:39:32;101942.13;;;-8.14;74.83
68656;BME280;55638;51.122;13.606;2022-12-18T10:41:24;101943.22;;;-7.99;73.93
68656;BME280;55638;51.122;13.606;2022-12-18T10:43:04;101940.84;;;-7.86;72.63
68656;BME280;55638;51.122;13.606;2022-12-18T10:44:36;101930.59;;;-7.69;73.49
68656;BME280;55638;51.122;13.606;2022-12-18T10:47:45;101928.25;;;-7.49;72.06
68656;BME280;55638;51.122;13.606;2022-12-18T10:49:21;101933.69;;;-7.36;72.25
68656;BME280;55638;51.122;13.606;2022-12-18T10:50:54;101935.56;;;-7.26;71.84
68656;BME280;55638;51.122;13.606;2022-12-18T10:52:53;101935.69;;;-7.17;71.17
68656;BME280;55638;51.122;13.606;2022-12-18T10:54:27;101940.19;;;-7.05;71.02
68656;BME280;55638;51.122;13.606;2022-12-18T10:56:02;101940.34;;;-6.95;71.47
68656;BME280;55638;51.122;13.606;2022-12-18T10:57:37;101931.66;;;-6.86;71.53
68656;BME280;55638;51.122;13.606;2022-12-18T10:59:12;101937.06;;;-6.75;71.41
68656;BME280;55638;51.122;13.606;2022-12-18T11:00:45;101928.38;;;-6.67;71.34
68656;BME280;55638;51.122;13.606;2022-12-18T11:03:59;101933.75;;;-6.53;70.20
68656;BME280;55638;51.122;13.606;2022-12-18T11:05:33;101930.28;;;-6.50;69.59
68656;BME280;55638;51.122;13.606;2022-12-18T11:07:08;101925.09;;;-6.44;69.23
68656;BME280;55638;51.122;13.606;2022-12-18T11:08:41;101923.44;;;-6.36;69.66
68656;BME280;55638;51.122;13.606;2022-12-18T11:10:19;101924.28;;;-6.38;66.86
68656;BME280;55638;51.122;13.606;2022-12-18T11:11:59;101912.97;;;-6.28;67.81
68656;BME280;55638;51.122;13.606;2022-12-18T11:13:32;101906.03;;;-6.18;68.68
68656;BME280;55638;51.122;13.606;2022-12-18T11:15:04;101905.19;;;-6.14;67.83
68656;BME280;55638;51.122;13.606;2022-12-18T11:16:43;101905.22;;;-6.11;66.33
68656;BME280;55638;51.122;13.606;2022-12-18T11:18:34;101891.22;;;-6.07;67.32
68656;BME280;55638;51.122;13.606;2022-12-18T11:20:55;101893.84;;;-6.07;65.67
68656;BME280;55638;51.122;13.606;2022-12-18T11:22:19;101893.06;;;-5.97;65.91
68656;BME280;55638;51.122;13.606;2022-12-18T11:23:53;101903.63;;;-5.88;67.68
68656;BME280;55638;51.122;13.606;2022-12-18T11:25:25;101904.56;;;-5.83;67.88
68656;BME280;55638;51.122;13.606;2022-12-18T11:27:16;101900.16;;;-5.82;65.50
68656;BME280;55638;51.122;13.606;2022-12-18T11:28:52;101897.56;;;-5.79;64.83
68656;BME280;55638;51.122;13.606;2022-12-18T11:30:38;101897.56;;;-5.75;66.95
68656;BME280;55638;51.122;13.606;2022-12-18T11:35:58;101892.34;;;-5.70;63.70
68656;BME280;55638;51.122;13.606;2022-12-18T11:37:31;101885.38;;;-5.68;64.32
68656;BME280;55638;51.122;13.606;2022-12-18T11:39:12;101890.59;;;-5.69;65.57
68656;BME280;55638;51.122;13.606;2022-12-18T11:40:47;101888.81;;;-5.72;61.72
68656;BME280;55638;51.122;13.606;2022-12-18T11:42:34;101888.88;;;-5.63;64.61
68656;BME280;55638;51.122;13.606;2022-12-18T11:44:09;101893.31;;;-5.57;64.68
68656;BME280;55638;51.122;13.606;2022-12-18T11:45:49;101896.84;;;-5.51;65.76
68656;BME280;55638;51.122;13.606;2022-12-18T11:47:44;101895.13;;;-5.48;64.08
68656;BME280;55638;51.122;13.606;2022-12-18T11:49:26;101891.63;;;-5.44;65.28
68656;BME280;55638;51.122;13.606;2022-12-18T11:51:03;101893.41;;;-5.42;65.25
68656;BME280;55638;51.122;13.606;2022-12-18T11:52:40;101908.34;;;-5.35;65.31
68656;BME280;55638;51.122;13.606;2022-12-18T11:54:14;101913.66;;;-5.27;66.51
68656;BME280;55638;51.122;13.606;2022-12-18T11:56:03;101905.75;;;-5.24;63.71
68656;BME280;55638;51.122;13.606;2022-12-18T12:03:13;101905.81;;;-5.09;62.34
68656;BME280;55638;51.122;13.606;2022-12-18T12:07:20;101915.53;;;-4.91;63.12
68656;BME280;55638;51.122;13.606;2022-12-18T12:11:43;101910.28;;;-4.88;60.10
68656;BME280;55638;51.122;13.606;2022-12-18T12:19:22;101918.22;;;-4.77;61.80
68656;BME280;55638;51.122;13.606;2022-12-18T12:22:37;101923.47;;;-4.74;62.56
68656;BME280;55638;51.122;13.606;2022-12-18T12:26:07;101928.78;;;-4.69;63.03
68656;BME280;55638;51.122;13.606;2022-12-18T12:27:53;101920.91;;;-4.63;64.02
68656;BME280;55638;51.122;13.606;2022-12-18T12:35:12;101944.63;;;-4.56;62.06
68656;BME280;55638;51.122;13.606;2022-12-18T12:38:49;101940.25;;;-4.52;60.55
68656;BME280;55638;51.122;13.606;2022-12-18T12:40:26;101942.91;;;-4.46;61.08
68656;BME280;55638;51.122;13.606;2022-12-18T12:42:36;101947.28;;;-4.42;59.42
68656;BME280;55638;51.122;13.606;2022-12-18T12:44:53;101941.16;;;-4.39;61.75
68656;BME280;55638;51.122;13.606;2022-12-18T12:46:32;101925.31;;;-4.39;61.28
68656;BME280;55638;51.122;13.606;2022-12-18T12:48:15;101920.91;;;-4.45;57.78
68656;BME280;55638;51.122;13.606;2022-12-18T12:49:49;101913.91;;;-4.40;61.19
68656;BME280;55638;51.122;13.606;2022-12-18T12:51:27;101916.53;;;-4.44;57.58
68656;BME280;55638;51.122;13.606;2022-12-18T12:53:01;101916.53;;;-4.41;60.46
68656;BME280;55638;51.122;13.606;2022-12-18T12:54:38;101920.03;;;-4.36;61.48
68656;BME280;55638;51.122;13.606;2022-12-18T12:56:13;101917.41;;;-4.42;59.76
68656;BME280;55638;51.122;13.606;2022-12-18T13:01:36;101913.88;;;-4.43;58.59
68656;BME280;55638;51.122;13.606;2022-12-18T13:05:22;101905.97;;;-4.57;57.24
68656;BME280;55638;51.122;13.606;2022-12-18T13:07:05;101914.72;;;-4.65;57.38
68656;BME280;55638;51.122;13.606;2022-12-18T13:08:59;101910.31;;;-4.65;58.02
68656;BME280;55638;51.122;13.606;2022-12-18T13:10:42;101903.31;;;-4.67;58.55
68656;BME280;55638;51.122;13.606;2022-12-18T13:12:16;101901.53;;;-4.68;60.28
68656;BME280;55638;51.122;13.606;2022-12-18T13:14:20;101898.03;;;-4.76;59.77
68656;BME280;55638;51.122;13.606;2022-12-18T13:16:07;101894.50;;;-4.80;58.61
68656;BME280;55638;51.122;13.606;2022-12-18T13:17:39;101898.00;;;-4.78;60.39
68656;BME280;55638;51.122;13.606;2022-12-18T13:19:21;101895.34;;;-4.89;59.39
68656;BME280;55638;51.122;13.606;2022-12-18T13:22:47;101913.78;;;-4.95;60.12
68656;BME280;55638;51.122;13.606;2022-12-18T13:24:25;101909.34;;;-5.00;57.52
68656;BME280;55638;51.122;13.606;2022-12-18T13:26:27;101921.66;;;-5.01;59.98
68656;BME280;55638;51.122;13.606;2022-12-18T13:28:06;101917.22;;;-5.07;58.17
68656;BME280;55638;51.122;13.606;2022-12-18T13:36:51;101918.94;;;-5.19;59.79
68656;BME280;55638;51.122;13.606;2022-12-18T13:44:22;101914.50;;;-5.30;57.65
68656;BME280;55638;51.122;13.606;2022-12-18T13:46:28;101913.59;;;-5.38;56.79
68656;BME280;55638;51.122;13.606;2022-12-18T13:48:00;101908.38;;;-5.29;59.61
68656;BME280;55638;51.122;13.606;2022-12-18T13:49:40;101911.00;;;-5.29;59.77
68656;BME280;55638;51.122;13.606;2022-12-18T13:51:17;101910.09;;;-5.29;60.55
68656;BME280;55638;51.122;13.606;2022-12-18T13:52:52;101911.91;;;-5.22;61.56
68656;BME280;55638;51.122;13.606;2022-12-18T13:55:56;101914.56;;;-5.22;60.79
68656;BME280;55638;51.122;13.606;2022-12-18T13:57:36;101910.16;;;-5.24;59.18
68656;BME280;55638;51.122;13.606;2022-12-18T14:00:47;101916.31;;;-5.22;60.51
68656;BME280;55638;51.122;13.606;2022-12-18T14:02:25;101911.03;;;-5.21;60.64
68656;BME280;55638;51.122;13.606;2022-12-18T14:04:31;101915.41;;;-5.28;58.38
68656;BME280;55638;51.122;13.606;2022-12-18T14:06:06;101907.50;;;-5.23;60.14
68656;BME280;55638;51.122;13.606;2022-12-18T14:07:39;101914.50;;;-5.27;59.75
68656;BME280;55638;51.122;13.606;2022-12-18T14:09:34;101918.91;;;-5.32;59.21
68656;BME280;55638;51.122;13.606;2022-12-18T14:11:22;101910.97;;;-5.35;59.22
68656;BME280;55638;51.122;13.606;2022-12-18T14:13:04;101916.19;;;-5.42;58.66
68656;BME280;55638;51.122;13.606;2022-12-18T14:14:41;101910.94;;;-5.41;59.14
68656;BME280;55638;51.122;13.606;2022-12-18T14:16:15;101909.22;;;-5.37;60.06
68656;BME280;55638;51.122;13.606;2022-12-18T14:17:50;101906.56;;;-5.36;60.25
68656;BME280;55638;51.122;13.606;2022-12-18T14:19:22;101900.38;;;-5.42;59.50
68656;BME280;55638;51.122;13.606;2022-12-18T14:20:59;101897.75;;;-5.42;58.81
68656;BME280;55638;51.122;13.606;2022-12-18T14:22:31;101890.72;;;-5.48;59.06
68656;BME280;55638;51.122;13.606;2022-12-18T14:25:47;101896.84;;;-5.54;59.85
68656;BME280;55638;51.122;13.606;2022-12-18T14:27:24;101903.84;;;-5.57;59.57
68656;BME280;55638;51.122;13.606;2022-12-18T14:29:01;101895.94;;;-5.57;60.16
68656;BME280;55638;51.122;13.606;2022-12-18T14:30:46;101880.13;;;-5.60;60.27
68656;BME280;55638;51.122;13.606;2022-12-18T14:32:20;101878.38;;;-5.61;60.22
68656;BME280;55638;51.122;13.606;2022-12-18T14:33:52;101877.44;;;-5.65;60.12
68656;BME280;55638;51.122;13.606;2022-12-18T14:35:24;101881.81;;;-5.71;59.37
68656;BME280;55638;51.122;13.606;2022-12-18T14:36:57;101879.16;;;-5.75;59.92
68656;BME280;55638;51.122;13.606;2022-12-18T14:38:41;101886.13;;;-5.84;58.88
68656;BME280;55638;51.122;13.606;2022-12-18T14:40:13;101882.59;;;-5.89;59.44
68656;BME280;55638;51.122;13.606;2022-12-18T14:41:45;101879.06;;;-5.88;59.95
68656;BME280;55638;51.122;13.606;2022-12-18T14:43:17;101880.81;;;-5.92;60.46
68656;BME280;55638;51.122;13.606;2022-12-18T14:44:49;101878.16;;;-5.95;60.16
68656;BME280;55638;51.122;13.606;2022-12-18T14:46:47;101872.84;;;-6.01;59.19
68656;BME280;55638;51.122;13.606;2022-12-18T14:48:35;101875.44;;;-6.04;59.51
68656;BME280;55638;51.122;13.606;2022-12-18T14:50:13;101875.41;;;-6.12;59.90
68656;BME280;55638;51.122;13.606;2022-12-18T14:51:51;101885.91;;;-6.16;60.18
68656;BME280;55638;51.122;13.606;2022-12-18T14:53:33;101884.09;;;-6.21;60.09
68656;BME280;55638;51.122;13.606;2022-12-18T14:55:13;101884.97;;;-6.23;58.84
68656;BME280;55638;51.122;13.606;2022-12-18T14:56:48;101891.13;;;-6.19;59.86
68656;BME280;55638;51.122;13.606;2022-12-18T14:58:21;101882.34;;;-6.23;60.08
68656;BME280;55638;51.122;13.606;2022-12-18T15:00:04;101879.66;;;-6.28;60.48
68656;BME280;55638;51.122;13.606;2022-12-18T15:01:38;101875.22;;;-6.35;59.94
68656;BME280;55638;51.122;13.606;2022-12-18T15:03:17;101876.91;;;-6.40;60.44
68656;BME280;55638;51.122;13.606;2022-12-18T15:05:05;101868.97;;;-6.49;59.93
68656;BME280;55638;51.122;13.606;2022-12-18T15:06:43;101880.28;;;-6.56;60.93
68656;BME280;55638;51.122;13.606;2022-12-18T15:08:34;101875.75;;;-6.74;59.76
68656;BME280;55638;51.122;13.606;2022-12-18T15:10:11;101874.94;;;-6.69;60.87
68656;BME280;55638;51.122;13.606;2022-12-18T15:11:45;101880.16;;;-6.72;60.82
68656;BME280;55638;51.122;13.606;2022-12-18T15:13:22;101872.16;;;-6.82;60.04
68656;BME280;55638;51.122;13.606;2022-12-18T15:14:54;101874.84;;;-6.76;60.92
68656;BME280;55638;51.122;13.606;2022-12-18T15:16:27;101879.19;;;-6.80;61.25
68656;BME280;55638;51.122;13.606;2022-12-18T15:19:40;101869.53;;;-6.82;60.85
68656;BME280;55638;51.122;13.606;2022-12-18T15:21:17;101868.63;;;-6.83;60.78
68656;BME280;55638;51.122;13.606;2022-12-18T15:22:49;101875.53;;;-6.93;61.03
68656;BME280;55638;51.122;13.606;2022-12-18T15:24:26;101854.50;;;-6.97;60.55
68656;BME280;55638;51.122;13.606;2022-12-18T15:26:05;101865.06;;;-6.89;61.37
68656;BME280;55638;51.122;13.606;2022-12-18T15:27:46;101862.44;;;-6.91;61.25
68656;BME280;55638;51.122;13.606;2022-12-18T15:29:21;101865.03;;;-6.93;61.25
68656;BME280;55638;51.122;13.606;2022-12-18T15:30:59;101854.50;;;-6.96;61.04
68656;BME280;55638;51.122;13.606;2022-12-18T15:32:32;101856.19;;;-7.02;61.58
68656;BME280;55638;51.122;13.606;2022-12-18T15:35:39;101839.56;;;-7.01;61.13
68656;BME280;55638;51.122;13.606;2022-12-18T15:37:17;101845.59;;;-7.08;61.14
68656;BME280;55638;51.122;13.606;2022-12-18T15:38:50;101842.97;;;-7.10;61.25
68656;BME280;55638;51.122;13.606;2022-12-18T15:40:23;101844.72;;;-7.09;61.66
68656;BME280;55638;51.122;13.606;2022-12-18T15:41:55;101842.97;;;-7.08;61.59
68656;BME280;55638;51.122;13.606;2022-12-18T15:43:46;101843.91;;;-7.03;61.61
68656;BME280;55638;51.122;13.606;2022-12-18T15:45:19;101836.84;;;-7.10;61.66
68656;BME280;55638;51.122;13.606;2022-12-18T15:46:54;101840.28;;;-7.15;61.58
68656;BME280;55638;51.122;13.606;2022-12-18T15:48:26;101845.56;;;-7.11;61.74
68656;BME280;55638;51.122;13.606;2022-12-18T15:49:58;101837.63;;;-7.21;61.29
68656;BME280;55638;51.122;13.606;2022-12-18T15:51:35;101847.28;;;-7.15;61.36
68656;BME280;55638;51.122;13.606;2022-12-18T15:53:08;101852.53;;;-7.17;61.60
68656;BME280;55638;51.122;13.606;2022-12-18T15:54:40;101853.38;;;-7.21;61.95
68656;BME280;55638;51.122;13.606;2022-12-18T15:56:31;101855.09;;;-7.21;61.62
68656;BME280;55638;51.122;13.606;2022-12-18T15:58:22;101851.59;;;-7.22;61.58
68656;BME280;55638;51.122;13.606;2022-12-18T15:59:55;101845.50;;;-7.19;61.86
68656;BME280;55638;51.122;13.606;2022-12-18T16:01:30;101845.50;;;-7.18;61.94
68656;BME280;55638;51.122;13.606;2022-12-18T16:03:12;101834.06;;;-7.21;61.43
68656;BME280;55638;51.122;13.606;2022-12-18T16:04:44;101838.53;;;-7.17;61.82
68656;BME280;55638;51.122;13.606;2022-12-18T16:06:17;101836.78;;;-7.15;62.19
68656;BME280;55638;51.122;13.606;2022-12-18T16:07:49;101831.41;;;-7.24;61.66
68656;BME280;55638;51.122;13.606;2022-12-18T16:09:20;101836.63;;;-7.29;62.24
68656;BME280;55638;51.122;13.606;2022-12-18T16:10:57;101835.81;;;-7.23;62.20
68656;BME280;55638;51.122;13.606;2022-12-18T16:12:29;101841.03;;;-7.26;62.04
68656;BME280;55638;51.122;13.606;2022-12-18T16:14:01;101834.00;;;-7.27;62.04
68656;BME280;55638;51.122;13.606;2022-12-18T16:15:33;101838.38;;;-7.29;61.49
68656;BME280;55638;51.122;13.606;2022-12-18T16:17:09;101843.56;;;-7.34;62.24
68656;BME280;55638;51.122;13.606;2022-12-18T16:18:41;101845.34;;;-7.33;61.88
68656;BME280;55638;51.122;13.606;2022-12-18T16:20:18;101850.63;;;-7.30;61.75
68656;BME280;55638;51.122;13.606;2022-12-18T16:21:52;101844.50;;;-7.27;61.96
68656;BME280;55638;51.122;13.606;2022-12-18T16:23:24;101843.66;;;-7.26;61.58
68656;BME280;55638;51.122;13.606;2022-12-18T16:24:57;101843.63;;;-7.28;62.15
68656;BME280;55638;51.122;13.606;2022-12-18T16:26:29;101853.28;;;-7.25;62.10
68656;BME280;55638;51.122;13.606;2022-12-18T16:28:01;101844.47;;;-7.32;61.71
68656;BME280;55638;51.122;13.606;2022-12-18T16:29:33;101848.84;;;-7.31;62.18
68656;BME280;55638;51.122;13.606;2022-12-18T16:31:05;101848.03;;;-7.27;62.01
68656;BME280;55638;51.122;13.606;2022-12-18T16:32:37;101848.91;;;-7.26;62.10
68656;BME280;55638;51.122;13.606;2022-12-18T16:35:53;101841.09;;;-7.22;62.15
68656;BME280;55638;51.122;13.606;2022-12-18T16:37:25;101832.31;;;-7.24;61.61
68656;BME280;55638;51.122;13.606;2022-12-18T16:38:57;101834.94;;;-7.24;62.11
68656;BME280;55638;51.122;13.606;2022-12-18T16:40:31;101831.34;;;-7.32;61.86
68656;BME280;55638;51.122;13.606;2022-12-18T16:42:13;101830.47;;;-7.32;61.75
68656;BME280;55638;51.122;13.606;2022-12-18T16:43:46;101841.91;;;-7.26;62.24
68656;BME280;55638;51.122;13.606;2022-12-18T16:45:26;101834.81;;;-7.36;61.87
68656;BME280;55638;51.122;13.606;2022-12-18T16:47:04;101825.22;;;-7.32;62.11
68656;BME280;55638;51.122;13.606;2022-12-18T16:48:39;101833.09;;;-7.31;62.22
68656;BME280;55638;51.122;13.606;2022-12-18T16:50:11;101832.28;;;-7.27;62.08
68656;BME280;55638;51.122;13.606;2022-12-18T16:51:43;101829.59;;;-7.33;61.82
68656;BME280;55638;51.122;13.606;2022-12-18T16:53:16;101839.22;;;-7.32;62.18
68656;BME280;55638;51.122;13.606;2022-12-18T16:54:48;101829.59;;;-7.33;62.12
68656;BME280;55638;51.122;13.606;2022-12-18T16:56:22;101833.03;;;-7.37;61.84
68656;BME280;55638;51.122;13.606;2022-12-18T16:57:54;101816.47;;;-7.33;62.04
68656;BME280;55638;51.122;13.606;2022-12-18T16:59:26;101826.13;;;-7.30;62.13
68656;BME280;55638;51.122;13.606;2022-12-18T17:00:58;101833.06;;;-7.34;62.06
68656;BME280;55638;51.122;13.606;2022-12-18T17:02:30;101824.38;;;-7.28;62.12
68656;BME280;55638;51.122;13.606;2022-12-18T17:04:04;101832.19;;;-7.36;61.87
68656;BME280;55638;51.122;13.606;2022-12-18T17:05:36;101827.84;;;-7.31;62.31
68656;BME280;55638;51.122;13.606;2022-12-18T17:07:09;101822.56;;;-7.34;61.58
68656;BME280;55638;51.122;13.606;2022-12-18T17:08:41;101824.31;;;-7.36;61.84
68656;BME280;55638;51.122;13.606;2022-12-18T17:10:13;101837.50;;;-7.30;62.49
68656;BME280;55638;51.122;13.606;2022-12-18T17:11:45;101824.34;;;-7.31;61.97
68656;BME280;55638;51.122;13.606;2022-12-18T17:13:17;101819.97;;;-7.31;62.10
68656;BME280;55638;51.122;13.606;2022-12-18T17:14:55;101821.72;;;-7.31;62.35
68656;BME280;55638;51.122;13.606;2022-12-18T17:16:29;101818.22;;;-7.32;62.14
68656;BME280;55638;51.122;13.606;2022-12-18T17:18:02;101817.38;;;-7.28;62.17
68656;BME280;55638;51.122;13.606;2022-12-18T17:19:34;101822.63;;;-7.29;62.36
68656;BME280;55638;51.122;13.606;2022-12-18T17:21:06;101819.97;;;-7.31;62.27
68656;BME280;55638;51.122;13.606;2022-12-18T17:22:40;101811.22;;;-7.31;62.30
68656;BME280;55638;51.122;13.606;2022-12-18T17:24:12;101815.66;;;-7.26;62.13
68656;BME280;55638;51.122;13.606;2022-12-18T17:25:43;101811.31;;;-7.22;62.21
68656;BME280;55638;51.122;13.606;2022-12-18T17:27:16;101822.66;;;-7.25;62.01
68656;BME280;55638;51.122;13.606;2022-12-18T17:28:48;101812.19;;;-7.22;62.20
68656;BME280;55638;51.122;13.606;2022-12-18T17:30:20;101813.03;;;-7.26;62.08
68656;BME280;55638;51.122;13.606;2022-12-18T17:31:52;101807.75;;;-7.27;61.81
68656;BME280;55638;51.122;13.606;2022-12-18T17:33:25;101808.69;;;-7.24;62.07
68656;BME280;55638;51.122;13.606;2022-12-18T17:34:57;101812.16;;;-7.25;61.98
68656;BME280;55638;51.122;13.606;2022-12-18T17:36:36;101812.16;;;-7.25;62.03
68656;BME280;55638;51.122;13.606;2022-12-18T17:38:08;101807.81;;;-7.23;62.02
68656;BME280;55638;51.122;13.606;2022-12-18T17:39:40;101817.38;;;-7.29;62.13
68656;BME280;55638;51.122;13.606;2022-12-18T17:41:12;101818.25;;;-7.29;61.91
68656;BME280;55638;51.122;13.606;2022-12-18T17:42:44;101817.44;;;-7.22;62.23
68656;BME280;55638;51.122;13.606;2022-12-18T17:44:16;101820.97;;;-7.20;62.21
68656;BME280;55638;51.122;13.606;2022-12-18T17:45:48;101812.22;;;-7.19;62.38
68656;BME280;55638;51.122;13.606;2022-12-18T17:47:20;101812.28;;;-7.16;62.11
68656;BME280;55638;51.122;13.606;2022-12-18T17:48:54;101811.34;;;-7.19;62.03
68656;BME280;55638;51.122;13.606;2022-12-18T17:50:26;101811.41;;;-7.16;62.28
68656;BME280;55638;51.122;13.606;2022-12-18T17:51:58;101802.63;;;-7.15;62.43
68656;BME280;55638;51.122;13.606;2022-12-18T17:53:31;101789.47;;;-7.18;62.35
68656;BME280;55638;51.122;13.606;2022-12-18T17:55:03;101791.28;;;-7.12;62.30
68656;BME280;55638;51.122;13.606;2022-12-18T17:56:35;101788.69;;;-7.09;62.33
68656;BME280;55638;51.122;13.606;2022-12-18T17:58:08;101797.44;;;-7.09;62.35
68656;BME280;55638;51.122;13.606;2022-12-18T17:59:40;101786.94;;;-7.09;62.03
68656;BME280;55638;51.122;13.606;2022-12-18T18:01:14;101794.75;;;-7.15;61.98
68656;BME280;55638;51.122;13.606;2022-12-18T18:02:46;101800.09;;;-7.10;61.94
68656;BME280;55638;51.122;13.606;2022-12-18T18:04:19;101793.91;;;-7.12;62.23
68656;BME280;55638;51.122;13.606;2022-12-18T18:05:58;101797.41;;;-7.13;61.68
68656;BME280;55638;51.122;13.606;2022-12-18T18:07:30;101793.88;;;-7.16;62.35
68656;BME280;55638;51.122;13.606;2022-12-18T18:09:02;101786.94;;;-7.09;62.23
68656;BME280;55638;51.122;13.606;2022-12-18T18:10:35;101789.59;;;-7.07;62.16
68656;BME280;55638;51.122;13.606;2022-12-18T18:12:08;101782.63;;;-7.02;62.34
68656;BME280;55638;51.122;13.606;2022-12-18T18:13:59;101788.78;;;-6.99;62.35
68656;BME280;55638;51.122;13.606;2022-12-18T18:15:31;101785.28;;;-6.99;62.30
68656;BME280;55638;51.122;13.606;2022-12-18T18:17:03;101782.69;;;-6.96;62.26
68656;BME280;55638;51.122;13.606;2022-12-18T18:18:36;101786.16;;;-7.00;62.34
68656;BME280;55638;51.122;13.606;2022-12-18T18:20:09;101785.31;;;-6.98;62.21
68656;BME280;55638;51.122;13.606;2022-12-18T18:21:43;101782.66;;;-6.99;62.18
68656;BME280;55638;51.122;13.606;2022-12-18T18:23:15;101782.72;;;-6.93;62.24
68656;BME280;55638;51.122;13.606;2022-12-18T18:24:47;101785.34;;;-6.92;61.75
68656;BME280;55638;51.122;13.606;2022-12-18T18:26:19;101782.72;;;-6.93;62.06
68656;BME280;55638;51.122;13.606;2022-12-18T18:27:51;101778.41;;;-6.86;62.36
68656;BME280;55638;51.122;13.606;2022-12-18T18:29:24;101777.56;;;-6.84;62.13
68656;BME280;55638;51.122;13.606;2022-12-18T18:31:03;101773.16;;;-6.86;61.78
68656;BME280;55638;51.122;13.606;2022-12-18T18:32:35;101768.81;;;-6.83;62.25
68656;BME280;55638;51.122;13.606;2022-12-18T18:34:21;101767.09;;;-6.81;62.07
68656;BME280;55638;51.122;13.606;2022-12-18T18:35:53;101766.22;;;-6.78;62.00
68656;BME280;55638;51.122;13.606;2022-12-18T18:37:25;101775.84;;;-6.79;61.91
68656;BME280;55638;51.122;13.606;2022-12-18T18:38:58;101776.75;;;-6.72;62.22
68656;BME280;55638;51.122;13.606;2022-12-18T18:40:31;101770.63;;;-6.74;62.12
68656;BME280;55638;51.122;13.606;2022-12-18T18:42:03;101766.22;;;-6.77;61.94
68656;BME280;55638;51.122;13.606;2022-12-18T18:43:35;101761.88;;;-6.75;62.04
68656;BME280;55638;51.122;13.606;2022-12-18T18:45:07;101759.25;;;-6.75;61.83
68656;BME280;55638;51.122;13.606;2022-12-18T18:46:39;101753.13;;;-6.74;61.84
68656;BME280;55638;51.122;13.606;2022-12-18T18:48:11;101750.50;;;-6.72;61.78
68656;BME280;55638;51.122;13.606;2022-12-18T18:49:44;101744.41;;;-6.67;62.05
68656;BME280;55638;51.122;13.606;2022-12-18T18:51:18;101743.56;;;-6.65;61.79
68656;BME280;55638;51.122;13.606;2022-12-18T18:52:52;101752.31;;;-6.65;61.60
68656;BME280;55638;51.122;13.606;2022-12-18T18:54:24;101750.59;;;-6.61;61.78
68656;BME280;55638;51.122;13.606;2022-12-18T18:55:57;101747.09;;;-6.57;61.75
68656;BME280;55638;51.122;13.606;2022-12-18T18:57:50;101733.09;;;-6.56;61.68
68656;BME280;55638;51.122;13.606;2022-12-18T18:59:22;101735.72;;;-6.56;61.64
68656;BME280;55638;51.122;13.606;2022-12-18T19:01:20;101726.03;;;-6.65;60.50
68656;BME280;55638;51.122;13.606;2022-12-18T19:02:53;101721.66;;;-6.64;60.45
68656;BME280;55638;51.122;13.606;2022-12-18T19:04:32;101719.94;;;-6.59;60.89
68656;BME280;55638;51.122;13.606;2022-12-18T19:06:05;101721.72;;;-6.58;61.41
68656;BME280;55638;51.122;13.606;2022-12-18T19:07:38;101726.06;;;-6.62;61.06
68656;BME280;55638;51.122;13.606;2022-12-18T19:09:09;101718.19;;;-6.60;61.30
68656;BME280;55638;51.122;13.606;2022-12-18T19:10:43;101725.19;;;-6.59;60.97
68656;BME280;55638;51.122;13.606;2022-12-18T19:12:14;101727.84;;;-6.56;61.41
68656;BME280;55638;51.122;13.606;2022-12-18T19:14:09;101734.88;;;-6.54;61.31
68656;BME280;55638;51.122;13.606;2022-12-18T19:15:41;101723.50;;;-6.51;61.52
68656;BME280;55638;51.122;13.606;2022-12-18T19:17:14;101713.88;;;-6.49;61.39
68656;BME280;55638;51.122;13.606;2022-12-18T19:18:46;101711.25;;;-6.48;61.21
68656;BME280;55638;51.122;13.606;2022-12-18T19:20:18;101713.88;;;-6.48;61.30
68656;BME280;55638;51.122;13.606;2022-12-18T19:21:50;101708.63;;;-6.48;61.04
68656;BME280;55638;51.122;13.606;2022-12-18T19:23:22;101710.38;;;-6.47;61.38
68656;BME280;55638;51.122;13.606;2022-12-18T19:24:54;101704.25;;;-6.49;61.12
68656;BME280;55638;51.122;13.606;2022-12-18T19:26:26;101705.13;;;-6.47;61.28
68656;BME280;55638;51.122;13.606;2022-12-18T19:27:59;101700.72;;;-6.46;61.02
68656;BME280;55638;51.122;13.606;2022-12-18T19:29:31;101692.00;;;-6.45;61.04
68656;BME280;55638;51.122;13.606;2022-12-18T19:31:05;101702.56;;;-6.39;61.26
68656;BME280;55638;51.122;13.606;2022-12-18T19:32:37;101698.19;;;-6.35;61.29
68656;BME280;55638;51.122;13.606;2022-12-18T19:34:10;101693.81;;;-6.32;61.50
68656;BME280;55638;51.122;13.606;2022-12-18T19:35:42;101673.63;;;-6.39;60.23
68656;BME280;55638;51.122;13.606;2022-12-18T19:37:14;101670.16;;;-6.32;61.14
68656;BME280;55638;51.122;13.606;2022-12-18T19:38:48;101667.50;;;-6.33;60.71
68656;BME280;55638;51.122;13.606;2022-12-18T19:40:20;101676.31;;;-6.30;61.12
68656;BME280;55638;51.122;13.606;2022-12-18T19:41:51;101665.78;;;-6.33;60.90
68656;BME280;55638;51.122;13.606;2022-12-18T19:43:24;101658.72;;;-6.37;60.68